Time;durP1;ratioP1;P1;durP2;ratioP2;P2;SDS_P1;SDS_P2;PMS_P1;PMS_P2;Temp;Humidity;BMP_temperature;BMP_pressure;BME280_temperature;BME280_humidity;BME280_pressure;Samples;Min_cycle;Max_cycle;Signal;HPM_P1;HPM_P2
2023/05/28 00:01:01;;;;;;;;;;;;;;;13.37;57.76;100490.97;4972853;28;4626;-74
2023/05/28 00:03:27;;;;;;;;;;;;;;;13.36;57.67;100486.66;4978824;28;4624;-76
2023/05/28 00:05:54;;;;;;;;;;;;;;;13.36;57.71;100483.94;4964184;28;1830;-74
2023/05/28 00:08:20;;;;;;;;;;;;;;;13.36;57.69;100494.75;4976673;28;1602;-73
2023/05/28 00:10:47;;;;;;;;;;;;;;;13.36;57.79;100499.34;4976157;28;1907;-74
2023/05/28 00:13:13;;;;;;;;;;;;;;;13.34;57.88;100496.88;4979109;28;1721;-75
2023/05/28 00:15:40;;;;;;;;;;;;;;;13.33;57.83;100491.72;4970659;28;5017;-74
2023/05/28 00:18:08;;;;;;;;;;;;;;;13.33;57.68;100497.13;4979967;28;1503;-74
2023/05/28 00:20:35;;;;;;;;;;;;;;;13.32;57.87;100498.16;4976599;28;3650;-73
2023/05/28 00:23:01;;;;;;;;;;;;;;;13.32;57.83;100498.16;4958449;28;3712;-73
2023/05/28 00:25:28;;;;;;;;;;;;;;;13.32;57.71;100498.16;4971285;28;2001;-73
2023/05/28 00:27:55;;;;;;;;;;;;;;;13.31;57.82;100491.13;4949521;28;1933;-76
2023/05/28 00:30:23;;;;;;;;;;;;;;;13.30;57.75;100495.72;4955397;28;2070;-74
2023/05/28 00:32:50;;;;;;;;;;;;;;;13.28;57.74;100495.13;4964720;28;2101;-74
2023/05/28 00:35:16;;;;;;;;;;;;;;;13.29;57.80;100495.94;4968525;28;1894;-75
2023/05/28 00:37:43;;;;;;;;;;;;;;;13.29;57.77;100495.94;4966353;28;1984;-74
2023/05/28 00:40:09;;;;;;;;;;;;;;;13.28;57.83;100494.31;4969657;28;1932;-74
2023/05/28 00:42:36;;;;;;;;;;;;;;;13.27;57.74;100485.38;4978897;28;2288;-74
2023/05/28 00:45:03;;;;;;;;;;;;;;;13.27;57.70;100481.84;4951523;28;1987;-74
2023/05/28 00:47:29;;;;;;;;;;;;;;;13.26;57.75;100482.91;4953604;28;2474;-74
2023/05/28 00:49:57;;;;;;;;;;;;;;;13.25;57.77;100482.06;4970130;28;1682;-74
2023/05/28 00:52:23;;;;;;;;;;;;;;;13.24;57.80;100472.31;4967501;28;1968;-74
2023/05/28 00:54:50;;;;;;;;;;;;;;;13.24;57.53;100466.91;4968368;28;1926;-73
2023/05/28 00:57:21;;;;;;;;;;;;;;;13.22;57.88;100455.47;4975983;28;1526;-74
2023/05/28 00:59:47;;;;;;;;;;;;;;;13.23;57.78;100449.00;4970135;28;1630;-74
2023/05/28 01:02:14;;;;;;;;;;;;;;;13.22;57.73;100446.56;4966487;28;2089;-74
2023/05/28 01:04:40;;;;;;;;;;;;;;;13.22;57.78;100443.84;4956144;28;2070;-74
2023/05/28 01:07:07;;;;;;;;;;;;;;;13.21;57.83;100442.19;4964958;28;2077;-74
2023/05/28 01:09:33;;;;;;;;;;;;;;;13.20;57.54;100452.19;4967481;28;1997;-74
2023/05/28 01:12:00;;;;;;;;;;;;;;;13.21;57.69;100458.41;4950208;28;1935;-73
2023/05/28 01:14:27;;;;;;;;;;;;;;;13.18;57.68;100447.03;4939140;28;2174;-74
2023/05/28 01:16:53;;;;;;;;;;;;;;;13.17;57.77;100452.66;4953524;28;2109;-74
2023/05/28 01:19:20;;;;;;;;;;;;;;;13.16;57.58;100457.25;4940676;28;1736;-74
2023/05/28 01:21:46;;;;;;;;;;;;;;;13.17;57.67;100458.88;4938419;28;2050;-74
2023/05/28 01:24:13;;;;;;;;;;;;;;;13.16;57.84;100459.16;4921686;28;1988;-74
2023/05/28 01:26:42;;;;;;;;;;;;;;;13.15;57.63;100449.41;4943700;28;1961;-74
2023/05/28 01:29:08;;;;;;;;;;;;;;;13.14;57.74;100445.03;4948781;28;1892;-74
2023/05/28 01:31:35;;;;;;;;;;;;;;;13.13;57.75;100456.91;4923736;28;1946;-74
2023/05/28 01:34:01;;;;;;;;;;;;;;;13.11;57.79;100470.66;4927965;28;1823;-73
2023/05/28 01:36:28;;;;;;;;;;;;;;;13.12;57.83;100471.50;4937718;28;1971;-73
2023/05/28 01:38:58;;;;;;;;;;;;;;;13.10;57.76;100460.91;4929060;28;2217;-74
2023/05/28 01:41:25;;;;;;;;;;;;;;;13.09;57.79;100458.47;4937676;28;1951;-73
2023/05/28 01:43:52;;;;;;;;;;;;;;;13.09;57.57;100472.00;4944493;28;1769;-74
2023/05/28 01:46:19;;;;;;;;;;;;;;;13.09;57.75;100469.28;4941332;28;1800;-73
2023/05/28 01:48:45;;;;;;;;;;;;;;;13.07;57.78;100464.09;4949936;28;2006;-73
2023/05/28 01:51:12;;;;;;;;;;;;;;;13.07;57.76;100464.09;4917507;28;2063;-74
2023/05/28 01:53:38;;;;;;;;;;;;;;;13.06;57.61;100473.28;4941916;28;1852;-73
2023/05/28 01:56:05;;;;;;;;;;;;;;;13.06;57.73;100469.72;4936723;28;1644;-73
2023/05/28 01:58:31;;;;;;;;;;;;;;;13.05;57.78;100482.44;4925670;28;2003;-75
2023/05/28 02:00:58;;;;;;;;;;;;;;;13.05;57.64;100479.72;4940477;28;1740;-75
2023/05/28 02:03:24;;;;;;;;;;;;;;;13.04;57.83;100483.50;4947017;28;1853;-74
2023/05/28 02:05:51;;;;;;;;;;;;;;;13.03;57.69;100483.72;4951785;28;1986;-74
2023/05/28 02:08:17;;;;;;;;;;;;;;;13.03;57.75;100487.28;4938490;28;2290;-75
2023/05/28 02:10:44;;;;;;;;;;;;;;;13.01;57.84;100500.19;4934775;28;2007;-74
2023/05/28 02:13:10;;;;;;;;;;;;;;;13.01;57.79;100499.38;4921572;28;1957;-74
2023/05/28 02:15:37;;;;;;;;;;;;;;;13.00;57.80;100501.28;4944338;28;2056;-74
2023/05/28 02:18:04;;;;;;;;;;;;;;;13.00;57.84;100508.53;4917941;28;5074;-74
2023/05/28 02:20:30;;;;;;;;;;;;;;;13.00;57.71;100505.81;4944086;28;1634;-75
2023/05/28 02:22:57;;;;;;;;;;;;;;;12.51;57.49;100433.16;4937806;28;3694;-74
2023/05/28 02:25:24;;;;;;;;;;;;;;;12.97;57.72;100507.16;4936362;28;1603;-74
2023/05/28 02:27:50;;;;;;;;;;;;;;;12.98;57.60;100507.97;4927936;28;1972;-73
2023/05/28 02:30:17;;;;;;;;;;;;;;;12.62;57.66;100453.13;4939126;28;1985;-74
2023/05/28 02:32:43;;;;;;;;;;;;;;;12.96;57.77;100495.50;4940352;28;2011;-74
2023/05/28 02:35:10;;;;;;;;;;;;;;;12.95;57.78;100487.63;4943932;28;2431;-73
2023/05/28 02:37:36;;;;;;;;;;;;;;;12.93;57.80;100482.44;4938884;28;2000;-74
2023/05/28 02:40:05;;;;;;;;;;;;;;;12.93;57.60;100485.16;4943733;28;1679;-73
2023/05/28 02:42:31;;;;;;;;;;;;;;;12.94;57.50;100481.41;4966696;28;2024;-74
2023/05/28 02:44:58;;;;;;;;;;;;;;;12.93;57.67;100484.34;4969852;28;2031;-74
2023/05/28 02:47:24;;;;;;;;;;;;;;;12.93;57.76;100478.94;4951611;28;1925;-74
2023/05/28 02:49:51;;;;;;;;;;;;;;;12.93;57.31;100478.94;4954813;28;1738;-74
2023/05/28 02:52:17;;;;;;;;;;;;;;;12.92;57.59;100482.69;4965687;28;2079;-74
2023/05/28 02:54:44;;;;;;;;;;;;;;;12.92;57.58;100501.63;4950821;28;1718;-74
2023/05/28 02:57:11;;;;;;;;;;;;;;;12.90;57.52;100504.53;4965714;28;1988;-74
2023/05/28 02:59:37;;;;;;;;;;;;;;;12.92;57.49;100501.63;4970075;28;2047;-75
2023/05/28 03:02:04;;;;;;;;;;;;;;;12.88;57.56;100505.84;4976645;28;1555;-75
2023/05/28 03:04:30;;;;;;;;;;;;;;;12.88;57.59;100498.56;4971407;28;1927;-74
2023/05/28 03:06:57;;;;;;;;;;;;;;;12.87;57.63;100499.63;4967797;28;2129;-75
2023/05/28 03:09:23;;;;;;;;;;;;;;;12.87;57.51;100501.50;4973328;28;1697;-74
2023/05/28 03:11:50;;;;;;;;;;;;;;;12.86;57.58;100514.19;4962953;28;1918;-74
2023/05/28 03:14:16;;;;;;;;;;;;;;;12.85;57.57;100515.25;4941624;28;1975;-74
2023/05/28 03:16:43;;;;;;;;;;;;;;;12.85;57.43;100517.97;4921529;28;2146;-74
2023/05/28 03:19:09;;;;;;;;;;;;;;;12.84;57.48;100519.00;4943773;28;1717;-75
2023/05/28 03:21:36;;;;;;;;;;;;;;;12.84;57.58;100519.00;4948377;28;1971;-74
2023/05/28 03:24:02;;;;;;;;;;;;;;;12.83;57.66;100511.16;4938876;28;1849;-74
2023/05/28 03:26:29;;;;;;;;;;;;;;;12.81;57.34;100514.06;4947850;28;2242;-74
2023/05/28 03:28:56;;;;;;;;;;;;;;;12.81;57.50;100511.38;4959898;28;1603;-74
2023/05/28 03:31:22;;;;;;;;;;;;;;;12.81;57.65;100511.38;4952991;28;1887;-74
2023/05/28 03:33:49;;;;;;;;;;;;;;;12.80;57.64;100514.31;4932996;28;2050;-74
2023/05/28 03:36:17;;;;;;;;;;;;;;;12.80;57.64;100525.13;4942576;28;1912;-75
2023/05/28 03:38:44;;;;;;;;;;;;;;;12.79;57.35;100524.28;4951822;28;2037;-75
2023/05/28 03:41:10;;;;;;;;;;;;;;;12.79;57.37;100528.88;4954616;28;2043;-74
2023/05/28 03:43:37;;;;;;;;;;;;;;;12.79;57.57;100531.56;4941724;28;1796;-74
2023/05/28 03:46:03;;;;;;;;;;;;;;;12.77;57.42;100529.13;4944065;28;2138;-75
2023/05/28 03:48:30;;;;;;;;;;;;;;;12.78;57.36;100536.16;4929655;28;1916;-75
2023/05/28 03:50:57;;;;;;;;;;;;;;;12.77;57.37;100525.59;4939929;28;1878;-74
2023/05/28 03:53:23;;;;;;;;;;;;;;;12.76;57.12;100534.75;4930141;28;1977;-75
2023/05/28 03:55:51;;;;;;;;;;;;;;;12.76;57.28;100532.06;4950228;28;2015;-75
2023/05/28 03:58:17;;;;;;;;;;;;;;;12.75;57.43;100544.75;4944732;28;2062;-75
2023/05/28 04:00:44;;;;;;;;;;;;;;;12.75;57.26;100549.31;4941093;28;2374;-74
2023/05/28 04:03:11;;;;;;;;;;;;;;;12.73;57.47;100550.41;4942828;28;1622;-74
2023/05/28 04:05:38;;;;;;;;;;;;;;;12.73;57.37;100544.16;4938106;28;1988;-75
2023/05/28 04:08:04;;;;;;;;;;;;;;;12.72;57.33;100537.94;4946810;28;2045;-74
2023/05/28 04:10:31;;;;;;;;;;;;;;;12.71;57.31;100544.41;4956036;28;1625;-75
2023/05/28 04:13:18;;;;;;;;;;;;;;;12.71;57.52;100547.09;4962617;28;1930;-75
2023/05/28 04:16:10;;;;;;;;;;;;;;;12.71;57.41;100544.41;4939678;28;1891;-73
2023/05/28 04:19:02;;;;;;;;;;;;;;;12.71;57.37;100559.78;4944331;28;1964;-76
2023/05/28 04:21:54;;;;;;;;;;;;;;;12.70;57.50;100560.81;4955410;28;1717;-76
2023/05/28 04:24:47;;;;;;;;;;;;;;;12.68;57.51;100555.66;4965558;28;3942;-74
2023/05/28 04:27:40;;;;;;;;;;;;;;;12.67;57.32;100553.19;4964118;28;1955;-76
2023/05/28 04:30:27;;;;;;;;;;;;;;;12.68;57.34;100568.38;4968306;28;1740;-75
2023/05/28 04:33:19;;;;;;;;;;;;;;;12.68;57.28;100560.25;4968256;28;1946;-74
2023/05/28 04:36:13;;;;;;;;;;;;;;;12.66;57.22;100565.88;4968277;28;1933;-75
2023/05/28 04:38:39;;;;;;;;;;;;;;;12.66;57.24;100570.47;4966801;28;2092;-75
2023/05/28 04:41:06;;;;;;;;;;;;;;;12.66;57.35;100575.88;4967266;28;2049;-76
2023/05/28 04:43:33;;;;;;;;;;;;;;;12.65;57.30;100580.47;4968323;28;2392;-75
2023/05/28 04:46:03;;;;;;;;;;;;;;;12.64;57.32;100580.69;4952330;28;2007;-75
2023/05/28 04:48:31;;;;;;;;;;;;;;;12.63;57.32;100574.44;4951459;28;5154;-74
2023/05/28 04:50:58;;;;;;;;;;;;;;;12.63;57.18;100577.16;4954875;28;1879;-75
2023/05/28 04:53:24;;;;;;;;;;;;;;;12.63;57.26;100573.63;4960827;28;3102;-75
2023/05/28 04:55:51;;;;;;;;;;;;;;;12.63;57.23;100576.34;4948838;28;1693;-75
2023/05/28 04:58:18;;;;;;;;;;;;;;;12.62;57.16;100585.50;4945718;28;1963;-75
2023/05/28 05:00:44;;;;;;;;;;;;;;;12.61;57.36;100595.47;4953569;28;1651;-76
2023/05/28 05:03:11;;;;;;;;;;;;;;;12.63;57.19;100595.25;4948793;28;1991;-74
2023/05/28 05:05:39;;;;;;;;;;;;;;;12.62;57.05;100594.44;4968677;28;4105;-75
2023/05/28 05:08:05;;;;;;;;;;;;;;;12.59;57.14;100597.59;4967966;28;1727;-75
2023/05/28 05:10:32;;;;;;;;;;;;;;;12.60;57.10;100591.13;4969662;28;1717;-75
2023/05/28 05:12:59;;;;;;;;;;;;;;;12.59;57.08;100580.53;4966577;28;1929;-75
2023/05/28 05:15:26;;;;;;;;;;;;;;;12.59;56.88;100586.78;4953850;28;1731;-75
2023/05/28 05:17:52;;;;;;;;;;;;;;;12.59;57.04;100597.59;4955080;28;2091;-74
2023/05/28 05:20:19;;;;;;;;;;;;;;;12.60;56.94;100606.53;4960104;28;1969;-75
2023/05/28 05:22:45;;;;;;;;;;;;;;;12.59;56.86;100612.97;4963653;28;1998;-75
2023/05/28 05:25:12;;;;;;;;;;;;;;;12.58;56.87;100612.16;4968337;28;1748;-75
2023/05/28 05:27:39;;;;;;;;;;;;;;;12.59;56.88;100611.09;4952807;28;1889;-74
2023/05/28 05:30:05;;;;;;;;;;;;;;;12.58;56.88;100612.16;4971627;28;1638;-74
2023/05/28 05:32:32;;;;;;;;;;;;;;;12.57;56.88;100615.91;4947063;28;4678;-75
2023/05/28 05:34:58;;;;;;;;;;;;;;;12.57;56.93;100615.91;4971099;28;2123;-75
2023/05/28 05:37:25;;;;;;;;;;;;;;;12.58;56.82;100619.44;4952158;28;1773;-75
2023/05/28 05:39:51;;;;;;;;;;;;;;;12.58;56.75;100622.13;4976626;28;1933;-75
2023/05/28 05:42:21;;;;;;;;;;;;;;;12.56;56.67;100622.38;4979568;28;2073;-75
2023/05/28 05:44:50;;;;;;;;;;;;;;;12.56;56.67;100624.22;4977949;28;1511;-73
2023/05/28 05:47:18;;;;;;;;;;;;;;;12.55;56.85;100623.41;4977843;28;1514;-73
2023/05/28 05:49:45;;;;;;;;;;;;;;;12.56;56.88;100621.53;4968381;28;1772;-73
2023/05/28 05:52:11;;;;;;;;;;;;;;;12.55;56.88;100617.19;4974161;28;1995;-73
2023/05/28 05:54:38;;;;;;;;;;;;;;;12.56;56.77;100616.97;4979593;28;2003;-74
2023/05/28 05:57:05;;;;;;;;;;;;;;;12.55;56.77;100611.78;4964799;28;1940;-73
2023/05/28 05:59:31;;;;;;;;;;;;;;;12.55;56.58;100614.50;4982448;28;976;-74
2023/05/28 06:01:58;;;;;;;;;;;;;;;12.53;56.72;100603.94;4970960;28;3540;-74
2023/05/28 06:04:33;;;;;;;;;;;;;;;12.53;56.44;100612.03;4973233;28;1997;-74
2023/05/28 06:07:04;;;;;;;;;;;;;;;12.54;56.59;100613.66;4972192;28;2049;-73
2023/05/28 06:09:31;;;;;;;;;;;;;;;12.53;56.42;100616.59;4961266;28;2045;-74
2023/05/28 06:11:57;;;;;;;;;;;;;;;12.52;56.64;100614.94;4975766;28;2173;-76
2023/05/28 06:14:24;;;;;;;;;;;;;;;12.52;56.62;100621.19;4979201;28;2064;-75
2023/05/28 06:16:51;;;;;;;;;;;;;;;12.53;56.48;100627.41;4975718;28;2107;-75
2023/05/28 06:19:18;;;;;;;;;;;;;;;12.52;56.45;100621.19;4976273;28;1944;-72
2023/05/28 06:21:47;;;;;;;;;;;;;;;12.53;56.37;100632.78;4969610;28;2039;-74
2023/05/28 06:24:14;;;;;;;;;;;;;;;12.54;56.35;100623.66;4973441;28;1793;-75
2023/05/28 06:26:40;;;;;;;;;;;;;;;12.50;56.33;100621.41;4943654;28;1905;-75
2023/05/28 06:29:09;;;;;;;;;;;;;;;12.52;56.41;100625.75;4959651;28;1649;-75
2023/05/28 06:31:36;;;;;;;;;;;;;;;12.50;56.44;100626.81;4947683;28;3599;-75
2023/05/28 06:34:02;;;;;;;;;;;;;;;12.51;56.38;100630.34;4935133;28;2566;-74
2023/05/28 06:36:29;;;;;;;;;;;;;;;12.50;56.42;100626.81;4962600;28;2371;-73
2023/05/28 06:38:55;;;;;;;;;;;;;;;12.49;56.46;100635.97;4941073;28;1819;-74
2023/05/28 06:41:22;;;;;;;;;;;;;;;12.50;56.32;100636.81;4957126;28;1935;-75
2023/05/28 06:43:51;;;;;;;;;;;;;;;12.50;56.29;100637.63;4955840;28;1708;-75
2023/05/28 06:46:17;;;;;;;;;;;;;;;12.49;56.27;100640.53;4956270;28;1654;-75
2023/05/28 06:48:44;;;;;;;;;;;;;;;12.49;56.35;100635.16;4962770;28;2517;-75
2023/05/28 06:51:13;;;;;;;;;;;;;;;12.48;56.43;100642.44;4966832;28;2023;-75
2023/05/28 06:53:40;;;;;;;;;;;;;;;12.49;56.39;100645.94;4955523;28;2002;-75
2023/05/28 06:56:06;;;;;;;;;;;;;;;12.49;56.09;100654.06;4954459;28;1928;-75
2023/05/28 06:58:33;;;;;;;;;;;;;;;12.48;56.24;100638.91;4957637;28;3967;-75
2023/05/28 07:01:01;;;;;;;;;;;;;;;12.49;56.31;100649.47;4926713;28;4244;-75
2023/05/28 07:03:28;;;;;;;;;;;;;;;12.48;56.39;100652.41;4968841;28;4629;-75
2023/05/28 07:05:54;;;;;;;;;;;;;;;12.48;56.42;100655.94;4966595;28;2184;-74
2023/05/28 07:08:21;;;;;;;;;;;;;;;12.48;56.31;100657.81;4962306;28;4353;-75
2023/05/28 07:10:47;;;;;;;;;;;;;;;12.48;56.20;100653.22;4966222;28;2227;-74
2023/05/28 07:13:14;;;;;;;;;;;;;;;12.48;56.23;100665.91;4963913;28;2424;-74
2023/05/28 07:15:40;;;;;;;;;;;;;;;12.47;56.35;100654.28;4952841;28;1631;-74
2023/05/28 07:18:08;;;;;;;;;;;;;;;12.47;56.21;100659.69;4971820;28;2147;-74
2023/05/28 07:20:34;;;;;;;;;;;;;;;12.48;56.14;100669.44;4968030;28;4038;-74
2023/05/28 07:23:01;;;;;;;;;;;;;;;12.48;56.20;100674.03;4961458;28;4776;-74
2023/05/28 07:25:28;;;;;;;;;;;;;;;12.48;56.20;100671.31;4958364;28;3706;-75
2023/05/28 07:27:54;;;;;;;;;;;;;;;12.47;56.14;100669.66;4956292;28;2079;-74
2023/05/28 07:30:21;;;;;;;;;;;;;;;12.45;56.15;100669.91;4964512;28;1708;-74
2023/05/28 07:32:47;;;;;;;;;;;;;;;12.46;56.27;100673.41;4966345;28;2039;-73
2023/05/28 07:35:14;;;;;;;;;;;;;;;12.46;56.04;100676.13;4936179;28;1701;-74
2023/05/28 07:37:41;;;;;;;;;;;;;;;12.50;55.97;100680.84;4952634;28;1673;-74
2023/05/28 07:40:08;;;;;;;;;;;;;;;12.47;56.07;100697.53;4965329;28;1998;-77
2023/05/28 07:42:35;;;;;;;;;;;;;;;12.46;56.17;100684.22;4980665;28;1948;-76
2023/05/28 07:45:01;;;;;;;;;;;;;;;12.45;55.78;100686.09;4983439;28;1812;-77
2023/05/28 07:47:28;;;;;;;;;;;;;;;12.44;55.97;100695.28;4966048;28;2054;-72
2023/05/28 07:49:55;;;;;;;;;;;;;;;12.45;55.96;100699.63;4964298;28;2025;-74
2023/05/28 07:52:21;;;;;;;;;;;;;;;12.52;55.87;100693.28;4966827;28;1646;-74
2023/05/28 07:54:48;;;;;;;;;;;;;;;12.48;55.87;100684.84;4956848;28;1996;-74
2023/05/28 07:57:14;;;;;;;;;;;;;;;12.45;55.74;100680.72;4977041;28;1574;-74
2023/05/28 07:59:41;;;;;;;;;;;;;;;12.69;55.15;100687.00;4975122;28;2042;-74
2023/05/28 08:02:08;;;;;;;;;;;;;;;12.71;44.66;100687.63;4972297;28;4315;-74
2023/05/28 08:04:34;;;;;;;;;;;;;;;12.62;47.90;100680.91;4984167;28;4036;-74
2023/05/28 08:07:01;;;;;;;;;;;;;;;12.76;48.25;100665.28;4981837;28;1939;-74
2023/05/28 08:09:27;;;;;;;;;;;;;;;12.83;49.04;100654.41;4977327;28;4391;-75
2023/05/28 08:11:54;;;;;;;;;;;;;;;12.68;50.33;100671.03;4977704;28;1979;-74
2023/05/28 08:14:21;;;;;;;;;;;;;;;12.52;51.08;100680.59;4978069;28;2185;-74
2023/05/28 08:16:47;;;;;;;;;;;;;;;12.45;51.70;100666.38;4978747;28;2238;-74
2023/05/28 08:19:14;;;;;;;;;;;;;;;12.50;52.22;100682.75;4964830;28;2078;-74
2023/05/28 08:21:40;;;;;;;;;;;;;;;12.48;52.24;100674.03;4962412;28;3487;-75
2023/05/28 08:24:07;;;;;;;;;;;;;;;12.49;52.46;100683.78;4965719;28;1839;-75
2023/05/28 08:26:33;;;;;;;;;;;;;;;12.50;52.56;100704.34;4965453;28;1893;-74
2023/05/28 08:29:00;;;;;;;;;;;;;;;12.48;52.94;100714.53;4980377;28;2078;-75
2023/05/28 08:31:27;;;;;;;;;;;;;;;12.46;52.94;100712.06;4981540;28;1440;-74
2023/05/28 08:33:53;;;;;;;;;;;;;;;12.49;53.07;100702.69;4977922;28;2134;-75
2023/05/28 08:36:20;;;;;;;;;;;;;;;12.54;53.02;100688.50;4965395;28;1378;-74
2023/05/28 08:38:46;;;;;;;;;;;;;;;12.60;53.18;100684.88;4974155;28;2112;-74
2023/05/28 08:41:13;;;;;;;;;;;;;;;12.85;52.25;100700.91;4961659;28;2092;-74
2023/05/28 08:43:39;;;;;;;;;;;;;;;12.76;51.84;100681.50;4972552;28;1544;-74
2023/05/28 08:46:06;;;;;;;;;;;;;;;12.53;53.08;100687.69;4957439;28;1644;-75
2023/05/28 08:48:32;;;;;;;;;;;;;;;12.58;52.88;100695.91;4967620;28;2056;-74
2023/05/28 08:50:59;;;;;;;;;;;;;;;12.48;53.33;100687.53;4942479;28;1888;-74
2023/05/28 08:53:29;;;;;;;;;;;;;;;12.46;53.44;100663.44;4967775;28;2044;-74
2023/05/28 08:55:55;;;;;;;;;;;;;;;12.45;53.65;100655.56;4956517;28;1808;-76
2023/05/28 08:58:22;;;;;;;;;;;;;;;12.44;53.72;100670.13;4971562;28;2040;-76
2023/05/28 09:00:48;;;;;;;;;;;;;;;12.44;53.83;100672.81;4958991;28;4171;-73
2023/05/28 09:03:15;;;;;;;;;;;;;;;12.45;53.90;100678.00;4946901;28;4489;-73
2023/05/28 09:05:42;;;;;;;;;;;;;;;12.45;54.23;100682.59;4938246;28;1813;-73
2023/05/28 09:08:08;;;;;;;;;;;;;;;12.53;53.41;100676.03;4953384;28;4680;-74
2023/05/28 09:10:35;;;;;;;;;;;;;;;12.47;54.34;100683.16;4957970;28;1725;-75
2023/05/28 09:13:01;;;;;;;;;;;;;;;12.45;54.38;100680.72;4979186;28;3664;-73
2023/05/28 09:15:28;;;;;;;;;;;;;;;12.45;54.01;100678.00;4957359;28;2150;-75
2023/05/28 09:17:54;;;;;;;;;;;;;;;12.45;54.38;100679.88;4948950;28;2253;-73
2023/05/28 09:20:21;;;;;;;;;;;;;;;12.47;54.06;100684.00;4939443;28;2006;-75
2023/05/28 09:22:47;;;;;;;;;;;;;;;12.46;53.64;100679.66;4969298;28;2128;-73
2023/05/28 09:25:14;;;;;;;;;;;;;;;12.45;53.82;100675.31;4973737;28;3696;-74
2023/05/28 09:27:41;;;;;;;;;;;;;;;12.45;54.04;100675.31;4970491;28;2132;-74
2023/05/28 09:30:08;;;;;;;;;;;;;;;12.48;54.19;100671.31;4969062;28;1695;-75
2023/05/28 09:32:34;;;;;;;;;;;;;;;12.47;54.32;100667.81;4978744;28;2224;-73
2023/05/28 09:35:01;;;;;;;;;;;;;;;12.47;54.49;100670.50;4960926;28;2383;-74
2023/05/28 09:37:27;;;;;;;;;;;;;;;12.48;54.07;100665.91;4976486;28;2342;-75
2023/05/28 09:39:54;;;;;;;;;;;;;;;12.49;53.80;100672.97;4979453;28;2346;-73
2023/05/28 09:42:21;;;;;;;;;;;;;;;12.47;54.49;100680.47;4981800;28;1426;-73
2023/05/28 09:44:47;;;;;;;;;;;;;;;12.47;54.60;100673.22;4976551;28;2363;-76
2023/05/28 09:47:15;;;;;;;;;;;;;;;12.48;53.94;100660.53;4965456;28;2250;-73
2023/05/28 09:49:41;;;;;;;;;;;;;;;12.49;54.42;100656.75;4973327;28;2266;-75
2023/05/28 09:52:08;;;;;;;;;;;;;;;12.49;54.31;100654.06;4953238;28;2079;-74
2023/05/28 09:54:35;;;;;;;;;;;;;;;12.50;54.15;100659.25;4949624;28;2318;-72
2023/05/28 09:57:02;;;;;;;;;;;;;;;12.50;54.22;100655.72;4948808;28;2142;-74
2023/05/28 09:59:29;;;;;;;;;;;;;;;12.54;54.08;100659.59;4961200;28;1703;-74
2023/05/28 10:01:56;;;;;;;;;;;;;;;12.54;54.41;100656.91;4947195;28;3830;-73
2023/05/28 10:04:22;;;;;;;;;;;;;;;12.53;54.07;100651.72;4953996;28;2103;-74
2023/05/28 10:06:48;;;;;;;;;;;;;;;12.53;54.24;100652.56;4954842;28;2113;-73
2023/05/28 10:09:15;;;;;;;;;;;;;;;12.54;54.41;100650.69;4936226;28;4919;-74
2023/05/28 10:11:42;;;;;;;;;;;;;;;12.54;54.53;100653.38;4948633;28;4591;-72
2023/05/28 10:14:08;;;;;;;;;;;;;;;12.53;54.57;100655.25;4952426;28;2120;-74
2023/05/28 10:16:35;;;;;;;;;;;;;;;12.54;54.56;100656.09;4927724;28;3337;-74
2023/05/28 10:19:01;;;;;;;;;;;;;;;12.54;54.72;100648.78;4932882;28;2110;-73
2023/05/28 10:21:28;;;;;;;;;;;;;;;12.55;54.61;100647.72;4951318;28;1983;-73
2023/05/28 10:23:54;;;;;;;;;;;;;;;12.56;54.84;100648.53;4954921;28;1940;-74
2023/05/28 10:26:21;;;;;;;;;;;;;;;12.57;54.48;100650.22;4953233;28;1947;-74
2023/05/28 10:28:47;;;;;;;;;;;;;;;12.56;54.30;100653.94;4935567;28;3644;-73
2023/05/28 10:31:14;;;;;;;;;;;;;;;12.58;54.01;100658.06;4951077;28;1608;-73
2023/05/28 10:33:41;;;;;;;;;;;;;;;12.57;54.36;100659.13;4931235;28;1978;-73
2023/05/28 10:36:07;;;;;;;;;;;;;;;12.59;54.15;100661.59;4963704;28;2294;-74
2023/05/28 10:38:34;;;;;;;;;;;;;;;12.58;53.76;100655.38;4930856;28;3327;-72
2023/05/28 10:41:01;;;;;;;;;;;;;;;12.59;54.51;100659.75;4949823;28;2402;-75
2023/05/28 10:43:28;;;;;;;;;;;;;;;12.60;54.49;100668.66;4956196;28;2659;-73
2023/05/28 10:45:54;;;;;;;;;;;;;;;12.60;54.35;100668.66;4935419;28;1901;-72
2023/05/28 10:48:21;;;;;;;;;;;;;;;12.64;52.95;100677.94;4934418;28;1806;-72
2023/05/28 10:50:47;;;;;;;;;;;;;;;12.66;53.15;100678.53;4960925;28;1656;-73
2023/05/28 10:53:14;;;;;;;;;;;;;;;12.65;54.56;100680.44;4958113;28;2005;-73
2023/05/28 10:55:41;;;;;;;;;;;;;;;12.65;53.77;100679.63;4960118;28;2080;-73
2023/05/28 10:58:11;;;;;;;;;;;;;;;12.69;52.82;100678.09;4970038;28;1604;-73
2023/05/28 11:00:37;;;;;;;;;;;;;;;12.67;54.00;100682.88;4953576;28;1961;-73
2023/05/28 11:03:04;;;;;;;;;;;;;;;12.67;54.38;100686.41;4947820;28;2048;-73
2023/05/28 11:05:34;;;;;;;;;;;;;;;12.67;54.07;100682.88;4962487;28;1634;-72
2023/05/28 11:08:01;;;;;;;;;;;;;;;12.68;53.56;100684.56;4935565;28;1745;-76
2023/05/28 11:10:27;;;;;;;;;;;;;;;12.69;53.71;100689.72;4954147;28;1953;-74
2023/05/28 11:12:54;;;;;;;;;;;;;;;12.70;53.07;100695.94;4955838;28;1703;-73
2023/05/28 11:15:20;;;;;;;;;;;;;;;12.21;54.05;100625.78;4935462;28;1922;-77
2023/05/28 11:17:47;;;;;;;;;;;;;;;12.69;53.65;100703.22;4953417;28;1982;-73
2023/05/28 11:20:13;;;;;;;;;;;;;;;12.71;53.75;100705.72;4959962;28;2025;-75
2023/05/28 11:22:40;;;;;;;;;;;;;;;12.74;53.18;100713.34;4939521;28;1743;-74
2023/05/28 11:25:07;;;;;;;;;;;;;;;12.75;53.66;100714.19;4960628;28;5384;-74
2023/05/28 11:27:34;;;;;;;;;;;;;;;12.72;54.14;100705.47;4949701;28;1888;-74
2023/05/28 11:30:01;;;;;;;;;;;;;;;12.74;54.33;100702.53;4939004;28;3655;-74
2023/05/28 11:32:28;;;;;;;;;;;;;;;12.76;53.96;100691.50;4963912;28;1986;-73
2023/05/28 11:34:54;;;;;;;;;;;;;;;12.78;53.63;100700.19;4936559;28;1974;-76
2023/05/28 11:37:21;;;;;;;;;;;;;;;12.79;53.73;100712.66;4957412;28;1932;-76
2023/05/28 11:39:47;;;;;;;;;;;;;;;12.79;54.05;100715.34;4956848;28;1940;-75
2023/05/28 11:42:14;;;;;;;;;;;;;;;12.78;54.31;100713.72;4935417;28;3583;-75
2023/05/28 11:44:41;;;;;;;;;;;;;;;12.83;54.06;100711.16;4955083;28;1922;-75
2023/05/28 11:47:07;;;;;;;;;;;;;;;12.83;54.25;100711.97;4955723;28;1723;-75
2023/05/28 11:49:34;;;;;;;;;;;;;;;12.84;54.33;100712.78;4981536;28;3520;-74
2023/05/28 11:52:00;;;;;;;;;;;;;;;12.86;54.41;100719.63;4976299;28;2025;-74
2023/05/28 11:54:27;;;;;;;;;;;;;;;12.86;54.50;100703.41;4982627;28;1903;-74
2023/05/28 11:56:53;;;;;;;;;;;;;;;12.88;53.91;100705.84;4971016;28;1534;-74
2023/05/28 11:59:20;;;;;;;;;;;;;;;12.87;54.24;100704.22;4964375;28;4416;-74
2023/05/28 12:01:46;;;;;;;;;;;;;;;12.88;53.71;100700.44;4969560;28;2825;-74
2023/05/28 12:04:13;;;;;;;;;;;;;;;12.88;53.87;100698.59;4980623;28;2845;-75
2023/05/28 12:06:39;;;;;;;;;;;;;;;12.89;53.96;100702.94;4971361;28;1727;-74
2023/05/28 12:09:06;;;;;;;;;;;;;;;12.88;53.70;100712.13;4964369;28;2312;-73
2023/05/28 12:11:33;;;;;;;;;;;;;;;12.90;54.12;100712.69;4980843;28;2539;-75
2023/05/28 12:13:59;;;;;;;;;;;;;;;12.90;53.38;100726.19;4979859;28;1903;-74
2023/05/28 12:16:26;;;;;;;;;;;;;;;12.91;53.88;100727.88;4971579;28;2739;-73
2023/05/28 12:18:53;;;;;;;;;;;;;;;12.93;54.50;100725.75;4959474;28;2229;-73
2023/05/28 12:21:20;;;;;;;;;;;;;;;12.94;54.64;100724.69;4978711;28;1527;-74
2023/05/28 12:23:46;;;;;;;;;;;;;;;12.95;54.31;100706.59;4977137;28;2188;-73
2023/05/28 12:26:13;;;;;;;;;;;;;;;12.96;54.62;100697.41;4968952;28;2359;-74
2023/05/28 12:28:40;;;;;;;;;;;;;;;12.96;54.63;100694.72;4970980;28;1592;-73
2023/05/28 12:31:07;;;;;;;;;;;;;;;12.96;54.95;100695.53;4978565;28;1573;-74
2023/05/28 12:33:33;;;;;;;;;;;;;;;12.99;55.08;100696.13;4974590;28;2308;-73
2023/05/28 12:36:00;;;;;;;;;;;;;;;13.00;54.89;100703.19;4977928;28;2147;-73
2023/05/28 12:38:27;;;;;;;;;;;;;;;13.01;54.56;100718.38;4980480;28;1538;-75
2023/05/28 12:40:53;;;;;;;;;;;;;;;13.01;54.63;100707.56;4977267;28;1509;-74
2023/05/28 12:43:21;;;;;;;;;;;;;;;13.02;54.42;100709.19;4956492;28;2338;-73
2023/05/28 12:45:47;;;;;;;;;;;;;;;13.02;54.38;100711.91;4976716;28;2222;-74
2023/05/28 12:48:14;;;;;;;;;;;;;;;13.04;54.36;100712.50;4980115;28;1496;-74